sensor_id;sensor_type;location;lat;lon;timestamp;P1;durP1;ratioP1;P2;durP2;ratioP2
83099;SDS011;72972;51.784;4.660;2024-01-25T00:00:28;10.35;;;2.90;;
83099;SDS011;72972;51.784;4.660;2024-01-25T00:02:54;9.50;;;2.55;;
83099;SDS011;72972;51.784;4.660;2024-01-25T00:05:20;8.38;;;2.58;;
83099;SDS011;72972;51.784;4.660;2024-01-25T00:07:46;9.77;;;2.35;;
83099;SDS011;72972;51.784;4.660;2024-01-25T00:10:16;8.75;;;2.67;;
83099;SDS011;72972;51.784;4.660;2024-01-25T00:12:42;10.63;;;2.17;;
83099;SDS011;72972;51.784;4.660;2024-01-25T00:15:08;8.88;;;2.58;;
83099;SDS011;72972;51.784;4.660;2024-01-25T00:17:35;14.77;;;2.78;;
83099;SDS011;72972;51.784;4.660;2024-01-25T00:20:01;14.07;;;3.13;;
83099;SDS011;72972;51.784;4.660;2024-01-25T00:22:27;10.85;;;2.47;;
83099;SDS011;72972;51.784;4.660;2024-01-25T00:24:53;9.65;;;2.47;;
83099;SDS011;72972;51.784;4.660;2024-01-25T00:27:18;8.63;;;2.60;;
83099;SDS011;72972;51.784;4.660;2024-01-25T00:29:44;14.05;;;2.80;;
83099;SDS011;72972;51.784;4.660;2024-01-25T00:32:10;13.65;;;2.85;;
83099;SDS011;72972;51.784;4.660;2024-01-25T00:34:35;7.60;;;2.50;;
83099;SDS011;72972;51.784;4.660;2024-01-25T00:37:01;11.43;;;2.42;;
83099;SDS011;72972;51.784;4.660;2024-01-25T00:39:27;10.82;;;2.38;;
83099;SDS011;72972;51.784;4.660;2024-01-25T00:41:53;16.48;;;3.05;;
83099;SDS011;72972;51.784;4.660;2024-01-25T00:44:28;10.90;;;2.75;;
83099;SDS011;72972;51.784;4.660;2024-01-25T00:46:54;8.75;;;2.50;;
83099;SDS011;72972;51.784;4.660;2024-01-25T00:49:20;12.35;;;2.55;;
83099;SDS011;72972;51.784;4.660;2024-01-25T00:51:47;11.20;;;2.97;;
83099;SDS011;72972;51.784;4.660;2024-01-25T00:54:13;9.35;;;2.60;;
83099;SDS011;72972;51.784;4.660;2024-01-25T00:56:40;9.13;;;2.65;;
83099;SDS011;72972;51.784;4.660;2024-01-25T00:59:06;17.08;;;2.97;;
83099;SDS011;72972;51.784;4.660;2024-01-25T01:01:32;13.73;;;2.78;;
83099;SDS011;72972;51.784;4.660;2024-01-25T01:03:58;9.10;;;2.80;;
83099;SDS011;72972;51.784;4.660;2024-01-25T01:06:24;11.13;;;2.78;;
83099;SDS011;72972;51.784;4.660;2024-01-25T01:08:51;12.52;;;2.70;;
83099;SDS011;72972;51.784;4.660;2024-01-25T01:11:18;9.68;;;2.58;;
83099;SDS011;72972;51.784;4.660;2024-01-25T01:13:47;11.90;;;2.78;;
83099;SDS011;72972;51.784;4.660;2024-01-25T01:16:12;11.90;;;2.95;;
83099;SDS011;72972;51.784;4.660;2024-01-25T01:18:38;13.85;;;2.85;;
83099;SDS011;72972;51.784;4.660;2024-01-25T01:21:04;9.52;;;2.78;;
83099;SDS011;72972;51.784;4.660;2024-01-25T01:23:30;6.25;;;2.80;;
83099;SDS011;72972;51.784;4.660;2024-01-25T01:25:55;11.27;;;2.65;;
83099;SDS011;72972;51.784;4.660;2024-01-25T01:28:23;13.70;;;2.90;;
83099;SDS011;72972;51.784;4.660;2024-01-25T01:30:48;10.85;;;3.50;;
83099;SDS011;72972;51.784;4.660;2024-01-25T01:33:14;11.15;;;2.85;;
83099;SDS011;72972;51.784;4.660;2024-01-25T01:35:39;8.32;;;2.20;;
83099;SDS011;72972;51.784;4.660;2024-01-25T01:38:06;9.15;;;2.78;;
83099;SDS011;72972;51.784;4.660;2024-01-25T01:40:32;9.25;;;2.33;;
83099;SDS011;72972;51.784;4.660;2024-01-25T01:42:58;11.13;;;2.40;;
83099;SDS011;72972;51.784;4.660;2024-01-25T01:45:25;7.00;;;2.33;;
83099;SDS011;72972;51.784;4.660;2024-01-25T01:47:51;11.10;;;2.55;;
83099;SDS011;72972;51.784;4.660;2024-01-25T01:50:16;11.65;;;2.67;;
83099;SDS011;72972;51.784;4.660;2024-01-25T01:52:42;11.00;;;2.88;;
83099;SDS011;72972;51.784;4.660;2024-01-25T01:55:08;7.78;;;2.58;;
83099;SDS011;72972;51.784;4.660;2024-01-25T01:57:34;9.82;;;2.40;;
83099;SDS011;72972;51.784;4.660;2024-01-25T02:00:01;10.05;;;2.85;;
83099;SDS011;72972;51.784;4.660;2024-01-25T02:02:29;16.13;;;2.70;;
83099;SDS011;72972;51.784;4.660;2024-01-25T02:04:55;10.98;;;2.60;;
83099;SDS011;72972;51.784;4.660;2024-01-25T02:07:21;12.45;;;2.92;;
83099;SDS011;72972;51.784;4.660;2024-01-25T02:09:47;5.95;;;2.20;;
83099;SDS011;72972;51.784;4.660;2024-01-25T02:12:15;9.57;;;2.35;;
83099;SDS011;72972;51.784;4.660;2024-01-25T02:14:42;10.75;;;2.30;;
83099;SDS011;72972;51.784;4.660;2024-01-25T02:17:08;13.20;;;2.67;;
83099;SDS011;72972;51.784;4.660;2024-01-25T02:19:34;6.68;;;2.50;;
83099;SDS011;72972;51.784;4.660;2024-01-25T02:22:00;11.02;;;2.70;;
83099;SDS011;72972;51.784;4.660;2024-01-25T02:24:26;15.27;;;2.55;;
83099;SDS011;72972;51.784;4.660;2024-01-25T02:26:52;8.43;;;2.53;;
83099;SDS011;72972;51.784;4.660;2024-01-25T02:29:17;7.82;;;2.13;;
83099;SDS011;72972;51.784;4.660;2024-01-25T02:31:43;9.20;;;2.45;;
83099;SDS011;72972;51.784;4.660;2024-01-25T02:34:09;10.30;;;2.50;;
83099;SDS011;72972;51.784;4.660;2024-01-25T02:36:34;12.00;;;2.40;;
83099;SDS011;72972;51.784;4.660;2024-01-25T02:39:00;11.23;;;2.47;;
83099;SDS011;72972;51.784;4.660;2024-01-25T02:41:28;9.02;;;2.80;;
83099;SDS011;72972;51.784;4.660;2024-01-25T02:43:54;12.10;;;2.78;;
83099;SDS011;72972;51.784;4.660;2024-01-25T02:46:19;11.25;;;2.55;;
83099;SDS011;72972;51.784;4.660;2024-01-25T02:48:48;7.40;;;2.33;;
83099;SDS011;72972;51.784;4.660;2024-01-25T02:51:16;12.32;;;2.67;;
83099;SDS011;72972;51.784;4.660;2024-01-25T02:53:42;11.82;;;2.92;;
83099;SDS011;72972;51.784;4.660;2024-01-25T02:56:08;13.02;;;3.63;;
83099;SDS011;72972;51.784;4.660;2024-01-25T02:58:33;11.00;;;2.60;;
83099;SDS011;72972;51.784;4.660;2024-01-25T03:00:59;10.88;;;2.42;;
83099;SDS011;72972;51.784;4.660;2024-01-25T03:03:24;8.88;;;2.70;;
83099;SDS011;72972;51.784;4.660;2024-01-25T03:05:53;8.80;;;2.38;;
83099;SDS011;72972;51.784;4.660;2024-01-25T03:08:19;7.50;;;2.67;;
83099;SDS011;72972;51.784;4.660;2024-01-25T03:10:45;7.70;;;2.38;;
83099;SDS011;72972;51.784;4.660;2024-01-25T03:13:17;8.23;;;2.30;;
83099;SDS011;72972;51.784;4.660;2024-01-25T03:15:42;7.03;;;2.50;;
83099;SDS011;72972;51.784;4.660;2024-01-25T03:18:09;12.10;;;2.55;;
83099;SDS011;72972;51.784;4.660;2024-01-25T03:20:35;8.20;;;2.10;;
83099;SDS011;72972;51.784;4.660;2024-01-25T03:23:00;8.13;;;2.30;;
83099;SDS011;72972;51.784;4.660;2024-01-25T03:25:26;5.60;;;2.55;;
83099;SDS011;72972;51.784;4.660;2024-01-25T03:27:51;5.93;;;2.42;;
83099;SDS011;72972;51.784;4.660;2024-01-25T03:30:17;9.68;;;2.90;;
83099;SDS011;72972;51.784;4.660;2024-01-25T03:32:43;10.25;;;2.38;;
83099;SDS011;72972;51.784;4.660;2024-01-25T03:35:08;9.27;;;1.98;;
83099;SDS011;72972;51.784;4.660;2024-01-25T03:37:34;8.35;;;2.60;;
83099;SDS011;72972;51.784;4.660;2024-01-25T03:39:59;8.43;;;2.47;;
83099;SDS011;72972;51.784;4.660;2024-01-25T03:42:28;7.13;;;2.15;;
83099;SDS011;72972;51.784;4.660;2024-01-25T03:44:54;10.88;;;2.50;;
83099;SDS011;72972;51.784;4.660;2024-01-25T03:47:19;9.23;;;2.38;;
83099;SDS011;72972;51.784;4.660;2024-01-25T03:49:45;5.85;;;2.13;;
83099;SDS011;72972;51.784;4.660;2024-01-25T03:52:11;8.23;;;2.30;;
83099;SDS011;72972;51.784;4.660;2024-01-25T03:54:36;8.48;;;2.95;;
83099;SDS011;72972;51.784;4.660;2024-01-25T03:57:02;7.63;;;2.47;;
83099;SDS011;72972;51.784;4.660;2024-01-25T03:59:28;6.97;;;2.25;;
83099;SDS011;72972;51.784;4.660;2024-01-25T04:01:54;13.88;;;2.53;;
83099;SDS011;72972;51.784;4.660;2024-01-25T04:04:19;8.52;;;2.40;;
83099;SDS011;72972;51.784;4.660;2024-01-25T04:06:48;6.68;;;2.30;;
83099;SDS011;72972;51.784;4.660;2024-01-25T04:09:13;6.03;;;2.80;;
83099;SDS011;72972;51.784;4.660;2024-01-25T04:11:42;14.98;;;2.53;;
83099;SDS011;72972;51.784;4.660;2024-01-25T04:14:08;7.47;;;2.20;;
83099;SDS011;72972;51.784;4.660;2024-01-25T04:16:33;8.13;;;3.00;;
83099;SDS011;72972;51.784;4.660;2024-01-25T04:18:59;7.07;;;2.22;;
83099;SDS011;72972;51.784;4.660;2024-01-25T04:21:25;6.78;;;2.10;;
83099;SDS011;72972;51.784;4.660;2024-01-25T04:23:51;4.03;;;2.10;;
83099;SDS011;72972;51.784;4.660;2024-01-25T04:26:17;5.68;;;2.20;;
83099;SDS011;72972;51.784;4.660;2024-01-25T04:28:42;7.35;;;2.53;;
83099;SDS011;72972;51.784;4.660;2024-01-25T04:31:08;5.90;;;1.90;;
83099;SDS011;72972;51.784;4.660;2024-01-25T04:33:34;10.00;;;2.25;;
83099;SDS011;72972;51.784;4.660;2024-01-25T04:36:00;4.25;;;2.00;;
83099;SDS011;72972;51.784;4.660;2024-01-25T04:38:25;7.72;;;2.08;;
83099;SDS011;72972;51.784;4.660;2024-01-25T04:40:51;8.07;;;2.50;;
83099;SDS011;72972;51.784;4.660;2024-01-25T04:43:20;5.13;;;1.90;;
83099;SDS011;72972;51.784;4.660;2024-01-25T04:45:45;6.50;;;2.13;;
83099;SDS011;72972;51.784;4.660;2024-01-25T04:48:11;8.95;;;2.25;;
83099;SDS011;72972;51.784;4.660;2024-01-25T04:50:36;7.22;;;2.15;;
83099;SDS011;72972;51.784;4.660;2024-01-25T04:53:04;9.65;;;2.35;;
83099;SDS011;72972;51.784;4.660;2024-01-25T04:55:29;8.65;;;1.98;;
83099;SDS011;72972;51.784;4.660;2024-01-25T04:57:55;8.18;;;1.90;;
83099;SDS011;72972;51.784;4.660;2024-01-25T05:00:21;3.92;;;1.83;;
83099;SDS011;72972;51.784;4.660;2024-01-25T05:02:48;9.55;;;2.55;;
83099;SDS011;72972;51.784;4.660;2024-01-25T05:05:14;8.43;;;2.30;;
83099;SDS011;72972;51.784;4.660;2024-01-25T05:07:40;6.68;;;2.33;;
83099;SDS011;72972;51.784;4.660;2024-01-25T05:10:06;5.78;;;2.33;;
83099;SDS011;72972;51.784;4.660;2024-01-25T05:12:32;6.38;;;2.58;;
83099;SDS011;72972;51.784;4.660;2024-01-25T05:14:58;11.25;;;2.45;;
83099;SDS011;72972;51.784;4.660;2024-01-25T05:17:24;5.47;;;2.53;;
83099;SDS011;72972;51.784;4.660;2024-01-25T05:19:49;7.45;;;1.63;;
83099;SDS011;72972;51.784;4.660;2024-01-25T05:22:15;8.02;;;3.08;;
83099;SDS011;72972;51.784;4.660;2024-01-25T05:24:41;6.65;;;1.88;;
83099;SDS011;72972;51.784;4.660;2024-01-25T05:27:07;12.68;;;2.53;;
83099;SDS011;72972;51.784;4.660;2024-01-25T05:29:33;5.28;;;2.42;;
83099;SDS011;72972;51.784;4.660;2024-01-25T05:31:58;5.22;;;1.73;;
83099;SDS011;72972;51.784;4.660;2024-01-25T05:34:24;8.65;;;2.53;;
83099;SDS011;72972;51.784;4.660;2024-01-25T05:36:50;4.95;;;1.63;;
83099;SDS011;72972;51.784;4.660;2024-01-25T05:39:15;7.07;;;2.17;;
83099;SDS011;72972;51.784;4.660;2024-01-25T05:41:42;5.47;;;1.73;;
83099;SDS011;72972;51.784;4.660;2024-01-25T05:44:10;6.07;;;1.83;;
83099;SDS011;72972;51.784;4.660;2024-01-25T05:46:37;4.00;;;1.75;;
83099;SDS011;72972;51.784;4.660;2024-01-25T05:49:02;5.82;;;2.03;;
83099;SDS011;72972;51.784;4.660;2024-01-25T05:51:28;6.15;;;2.03;;
83099;SDS011;72972;51.784;4.660;2024-01-25T05:53:53;8.75;;;2.20;;
83099;SDS011;72972;51.784;4.660;2024-01-25T05:56:19;8.75;;;2.10;;
83099;SDS011;72972;51.784;4.660;2024-01-25T05:58:44;7.57;;;2.08;;
83099;SDS011;72972;51.784;4.660;2024-01-25T06:01:10;7.72;;;1.90;;
83099;SDS011;72972;51.784;4.660;2024-01-25T06:03:36;7.55;;;1.98;;
83099;SDS011;72972;51.784;4.660;2024-01-25T06:06:02;10.30;;;2.25;;
83099;SDS011;72972;51.784;4.660;2024-01-25T06:08:28;4.80;;;1.90;;
83099;SDS011;72972;51.784;4.660;2024-01-25T06:10:53;9.88;;;2.15;;
83099;SDS011;72972;51.784;4.660;2024-01-25T06:13:19;6.40;;;2.25;;
83099;SDS011;72972;51.784;4.660;2024-01-25T06:15:44;6.88;;;2.28;;
83099;SDS011;72972;51.784;4.660;2024-01-25T06:18:10;12.00;;;2.25;;
83099;SDS011;72972;51.784;4.660;2024-01-25T06:20:35;4.95;;;2.03;;
83099;SDS011;72972;51.784;4.660;2024-01-25T06:23:01;7.85;;;1.80;;
83099;SDS011;72972;51.784;4.660;2024-01-25T06:25:27;5.45;;;2.10;;
83099;SDS011;72972;51.784;4.660;2024-01-25T06:27:56;8.15;;;1.88;;
83099;SDS011;72972;51.784;4.660;2024-01-25T06:30:22;5.25;;;2.05;;
83099;SDS011;72972;51.784;4.660;2024-01-25T06:32:48;8.85;;;2.05;;
83099;SDS011;72972;51.784;4.660;2024-01-25T06:35:14;5.22;;;1.90;;
83099;SDS011;72972;51.784;4.660;2024-01-25T06:37:40;10.30;;;2.42;;
83099;SDS011;72972;51.784;4.660;2024-01-25T06:40:06;6.80;;;2.20;;
83099;SDS011;72972;51.784;4.660;2024-01-25T06:42:36;5.40;;;2.30;;
83099;SDS011;72972;51.784;4.660;2024-01-25T06:45:05;9.75;;;2.38;;
83099;SDS011;72972;51.784;4.660;2024-01-25T06:47:33;13.73;;;2.63;;
83099;SDS011;72972;51.784;4.660;2024-01-25T06:49:59;7.22;;;2.20;;
83099;SDS011;72972;51.784;4.660;2024-01-25T06:52:24;5.63;;;2.17;;
83099;SDS011;72972;51.784;4.660;2024-01-25T06:54:53;10.07;;;2.33;;
83099;SDS011;72972;51.784;4.660;2024-01-25T06:57:18;8.02;;;2.22;;
83099;SDS011;72972;51.784;4.660;2024-01-25T06:59:44;5.57;;;2.17;;
83099;SDS011;72972;51.784;4.660;2024-01-25T07:02:10;6.05;;;1.77;;
83099;SDS011;72972;51.784;4.660;2024-01-25T07:04:36;6.57;;;2.03;;
83099;SDS011;72972;51.784;4.660;2024-01-25T07:07:03;4.93;;;1.80;;
83099;SDS011;72972;51.784;4.660;2024-01-25T07:09:29;6.57;;;2.45;;
83099;SDS011;72972;51.784;4.660;2024-01-25T07:11:54;6.10;;;2.17;;
83099;SDS011;72972;51.784;4.660;2024-01-25T07:14:23;7.63;;;2.50;;
83099;SDS011;72972;51.784;4.660;2024-01-25T07:16:51;2.95;;;1.70;;
83099;SDS011;72972;51.784;4.660;2024-01-25T07:19:17;6.78;;;2.30;;
83099;SDS011;72972;51.784;4.660;2024-01-25T07:21:42;10.40;;;2.47;;
83099;SDS011;72972;51.784;4.660;2024-01-25T07:24:11;6.82;;;2.38;;
83099;SDS011;72972;51.784;4.660;2024-01-25T07:26:51;4.93;;;2.08;;
83099;SDS011;72972;51.784;4.660;2024-01-25T07:29:17;5.38;;;2.53;;
83099;SDS011;72972;51.784;4.660;2024-01-25T07:31:42;5.20;;;2.13;;
83099;SDS011;72972;51.784;4.660;2024-01-25T07:34:10;5.47;;;2.53;;
83099;SDS011;72972;51.784;4.660;2024-01-25T07:36:36;6.25;;;2.20;;
83099;SDS011;72972;51.784;4.660;2024-01-25T07:39:02;4.82;;;2.58;;
83099;SDS011;72972;51.784;4.660;2024-01-25T07:41:34;6.82;;;2.40;;
83099;SDS011;72972;51.784;4.660;2024-01-25T07:44:00;6.25;;;2.22;;
83099;SDS011;72972;51.784;4.660;2024-01-25T07:46:28;5.75;;;2.25;;
83099;SDS011;72972;51.784;4.660;2024-01-25T07:48:54;8.45;;;2.25;;
83099;SDS011;72972;51.784;4.660;2024-01-25T07:51:20;5.00;;;2.22;;
83099;SDS011;72972;51.784;4.660;2024-01-25T07:53:45;11.00;;;2.58;;
83099;SDS011;72972;51.784;4.660;2024-01-25T07:56:11;9.00;;;3.00;;
83099;SDS011;72972;51.784;4.660;2024-01-25T07:58:37;11.10;;;2.85;;
83099;SDS011;72972;51.784;4.660;2024-01-25T08:01:06;8.90;;;2.58;;
83099;SDS011;72972;51.784;4.660;2024-01-25T08:03:32;7.38;;;2.67;;
83099;SDS011;72972;51.784;4.660;2024-01-25T08:06:01;6.32;;;2.65;;
83099;SDS011;72972;51.784;4.660;2024-01-25T08:08:27;11.98;;;3.33;;
83099;SDS011;72972;51.784;4.660;2024-01-25T08:10:53;7.57;;;2.40;;
83099;SDS011;72972;51.784;4.660;2024-01-25T08:13:26;7.38;;;2.35;;
83099;SDS011;72972;51.784;4.660;2024-01-25T08:15:55;6.85;;;2.65;;
83099;SDS011;72972;51.784;4.660;2024-01-25T08:18:21;7.80;;;2.65;;
83099;SDS011;72972;51.784;4.660;2024-01-25T08:20:48;6.78;;;2.33;;
83099;SDS011;72972;51.784;4.660;2024-01-25T08:23:14;8.15;;;2.90;;
83099;SDS011;72972;51.784;4.660;2024-01-25T08:25:39;8.30;;;2.83;;
83099;SDS011;72972;51.784;4.660;2024-01-25T08:28:06;8.70;;;2.95;;
83099;SDS011;72972;51.784;4.660;2024-01-25T08:30:31;7.28;;;3.00;;
83099;SDS011;72972;51.784;4.660;2024-01-25T08:32:57;7.18;;;2.60;;
83099;SDS011;72972;51.784;4.660;2024-01-25T08:35:22;5.68;;;2.63;;
83099;SDS011;72972;51.784;4.660;2024-01-25T08:37:50;9.15;;;2.80;;
83099;SDS011;72972;51.784;4.660;2024-01-25T08:40:18;7.68;;;3.05;;
83099;SDS011;72972;51.784;4.660;2024-01-25T08:42:44;7.85;;;2.60;;
83099;SDS011;72972;51.784;4.660;2024-01-25T08:45:10;6.28;;;2.58;;
83099;SDS011;72972;51.784;4.660;2024-01-25T08:47:36;5.65;;;2.50;;
83099;SDS011;72972;51.784;4.660;2024-01-25T08:50:01;8.63;;;3.10;;
83099;SDS011;72972;51.784;4.660;2024-01-25T08:52:28;7.63;;;2.25;;
83099;SDS011;72972;51.784;4.660;2024-01-25T08:54:54;7.00;;;2.67;;
83099;SDS011;72972;51.784;4.660;2024-01-25T08:57:19;11.07;;;2.75;;
83099;SDS011;72972;51.784;4.660;2024-01-25T08:59:51;6.55;;;2.42;;
83099;SDS011;72972;51.784;4.660;2024-01-25T09:02:17;11.23;;;3.05;;
83099;SDS011;72972;51.784;4.660;2024-01-25T09:04:44;10.85;;;2.65;;
83099;SDS011;72972;51.784;4.660;2024-01-25T09:07:09;9.55;;;2.78;;
83099;SDS011;72972;51.784;4.660;2024-01-25T09:09:36;8.57;;;2.75;;
83099;SDS011;72972;51.784;4.660;2024-01-25T09:12:02;9.35;;;3.10;;
83099;SDS011;72972;51.784;4.660;2024-01-25T09:14:28;10.02;;;2.78;;
83099;SDS011;72972;51.784;4.660;2024-01-25T09:16:59;10.13;;;3.05;;
83099;SDS011;72972;51.784;4.660;2024-01-25T09:19:24;7.95;;;2.90;;
83099;SDS011;72972;51.784;4.660;2024-01-25T09:21:50;9.50;;;2.75;;
83099;SDS011;72972;51.784;4.660;2024-01-25T09:24:16;6.18;;;2.95;;
83099;SDS011;72972;51.784;4.660;2024-01-25T09:26:42;8.07;;;3.33;;
83099;SDS011;72972;51.784;4.660;2024-01-25T09:29:07;7.47;;;2.75;;
83099;SDS011;72972;51.784;4.660;2024-01-25T09:31:33;14.52;;;3.10;;
83099;SDS011;72972;51.784;4.660;2024-01-25T09:33:59;10.98;;;2.75;;
83099;SDS011;72972;51.784;4.660;2024-01-25T09:36:25;6.28;;;2.63;;
83099;SDS011;72972;51.784;4.660;2024-01-25T09:38:50;9.13;;;2.70;;
83099;SDS011;72972;51.784;4.660;2024-01-25T09:41:16;7.85;;;2.70;;
83099;SDS011;72972;51.784;4.660;2024-01-25T09:43:42;9.52;;;3.25;;
83099;SDS011;72972;51.784;4.660;2024-01-25T09:46:08;8.02;;;3.70;;
83099;SDS011;72972;51.784;4.660;2024-01-25T09:48:38;13.00;;;3.67;;
83099;SDS011;72972;51.784;4.660;2024-01-25T09:51:05;9.65;;;3.65;;
83099;SDS011;72972;51.784;4.660;2024-01-25T09:53:36;10.88;;;3.50;;
83099;SDS011;72972;51.784;4.660;2024-01-25T09:56:12;10.50;;;4.05;;
83099;SDS011;72972;51.784;4.660;2024-01-25T09:58:39;7.97;;;3.35;;
83099;SDS011;72972;51.784;4.660;2024-01-25T10:01:12;8.50;;;3.20;;
83099;SDS011;72972;51.784;4.660;2024-01-25T10:03:41;11.50;;;3.72;;
83099;SDS011;72972;51.784;4.660;2024-01-25T10:06:08;11.32;;;3.88;;
83099;SDS011;72972;51.784;4.660;2024-01-25T10:08:34;8.73;;;4.03;;
83099;SDS011;72972;51.784;4.660;2024-01-25T10:11:00;8.60;;;3.78;;
83099;SDS011;72972;51.784;4.660;2024-01-25T10:13:26;10.48;;;3.72;;
83099;SDS011;72972;51.784;4.660;2024-01-25T10:15:58;8.98;;;3.97;;
83099;SDS011;72972;51.784;4.660;2024-01-25T10:18:25;9.48;;;3.90;;
83099;SDS011;72972;51.784;4.660;2024-01-25T10:20:52;11.38;;;4.63;;
83099;SDS011;72972;51.784;4.660;2024-01-25T10:23:19;10.80;;;3.78;;
83099;SDS011;72972;51.784;4.660;2024-01-25T10:25:48;9.98;;;3.80;;
83099;SDS011;72972;51.784;4.660;2024-01-25T10:28:17;19.60;;;4.82;;
83099;SDS011;72972;51.784;4.660;2024-01-25T10:30:46;11.57;;;3.90;;
83099;SDS011;72972;51.784;4.660;2024-01-25T10:33:12;8.52;;;3.95;;
83099;SDS011;72972;51.784;4.660;2024-01-25T10:35:38;15.55;;;5.40;;
83099;SDS011;72972;51.784;4.660;2024-01-25T10:38:10;9.55;;;4.63;;
83099;SDS011;72972;51.784;4.660;2024-01-25T10:40:43;11.05;;;3.92;;
83099;SDS011;72972;51.784;4.660;2024-01-25T10:43:11;13.30;;;4.97;;
83099;SDS011;72972;51.784;4.660;2024-01-25T10:45:40;15.50;;;4.78;;
83099;SDS011;72972;51.784;4.660;2024-01-25T10:48:09;16.27;;;4.95;;
83099;SDS011;72972;51.784;4.660;2024-01-25T10:50:34;15.85;;;5.40;;
83099;SDS011;72972;51.784;4.660;2024-01-25T10:53:03;12.30;;;5.15;;
83099;SDS011;72972;51.784;4.660;2024-01-25T10:55:36;8.82;;;4.70;;
83099;SDS011;72972;51.784;4.660;2024-01-25T10:58:02;10.27;;;4.40;;
83099;SDS011;72972;51.784;4.660;2024-01-25T11:00:28;14.88;;;4.90;;
83099;SDS011;72972;51.784;4.660;2024-01-25T11:02:58;16.38;;;5.15;;
83099;SDS011;72972;51.784;4.660;2024-01-25T11:05:26;17.67;;;6.50;;
83099;SDS011;72972;51.784;4.660;2024-01-25T11:07:52;11.98;;;5.57;;
83099;SDS011;72972;51.784;4.660;2024-01-25T11:10:18;11.65;;;5.60;;
83099;SDS011;72972;51.784;4.660;2024-01-25T11:13:22;14.13;;;5.28;;
83099;SDS011;72972;51.784;4.660;2024-01-25T11:15:40;19.45;;;5.78;;
83099;SDS011;72972;51.784;4.660;2024-01-25T11:18:07;14.05;;;5.53;;
83099;SDS011;72972;51.784;4.660;2024-01-25T11:20:37;10.80;;;5.40;;
83099;SDS011;72972;51.784;4.660;2024-01-25T11:23:06;18.95;;;5.70;;
83099;SDS011;72972;51.784;4.660;2024-01-25T11:25:37;12.27;;;5.20;;
83099;SDS011;72972;51.784;4.660;2024-01-25T11:28:05;13.57;;;4.88;;
83099;SDS011;72972;51.784;4.660;2024-01-25T11:30:34;12.95;;;5.43;;
83099;SDS011;72972;51.784;4.660;2024-01-25T11:33:02;13.55;;;5.18;;
83099;SDS011;72972;51.784;4.660;2024-01-25T11:35:30;14.38;;;4.70;;
83099;SDS011;72972;51.784;4.660;2024-01-25T11:37:56;11.70;;;4.72;;
83099;SDS011;72972;51.784;4.660;2024-01-25T11:40:23;14.00;;;4.53;;
83099;SDS011;72972;51.784;4.660;2024-01-25T11:42:51;14.45;;;4.55;;
83099;SDS011;72972;51.784;4.660;2024-01-25T11:45:17;9.30;;;3.92;;
83099;SDS011;72972;51.784;4.660;2024-01-25T11:47:43;13.07;;;4.13;;
83099;SDS011;72972;51.784;4.660;2024-01-25T11:50:10;11.38;;;4.10;;
83099;SDS011;72972;51.784;4.660;2024-01-25T11:52:38;8.20;;;4.22;;
83099;SDS011;72972;51.784;4.660;2024-01-25T11:55:05;13.35;;;4.22;;
83099;SDS011;72972;51.784;4.660;2024-01-25T11:57:32;10.65;;;3.40;;
83099;SDS011;72972;51.784;4.660;2024-01-25T12:00:11;12.98;;;3.50;;
83099;SDS011;72972;51.784;4.660;2024-01-25T12:02:44;9.82;;;3.88;;
83099;SDS011;72972;51.784;4.660;2024-01-25T12:05:10;9.85;;;3.58;;
83099;SDS011;72972;51.784;4.660;2024-01-25T12:07:38;10.18;;;3.65;;
83099;SDS011;72972;51.784;4.660;2024-01-25T12:12:32;10.48;;;3.80;;
83099;SDS011;72972;51.784;4.660;2024-01-25T12:14:58;15.65;;;3.65;;
83099;SDS011;72972;51.784;4.660;2024-01-25T12:17:26;11.90;;;3.22;;
83099;SDS011;72972;51.784;4.660;2024-01-25T12:19:54;8.63;;;3.30;;
83099;SDS011;72972;51.784;4.660;2024-01-25T12:22:21;11.40;;;3.47;;
83099;SDS011;72972;51.784;4.660;2024-01-25T12:24:47;15.38;;;3.30;;
83099;SDS011;72972;51.784;4.660;2024-01-25T12:27:14;11.65;;;3.53;;
83099;SDS011;72972;51.784;4.660;2024-01-25T12:29:44;9.20;;;3.50;;
83099;SDS011;72972;51.784;4.660;2024-01-25T12:32:12;9.90;;;3.50;;
83099;SDS011;72972;51.784;4.660;2024-01-25T12:37:27;10.85;;;3.22;;
83099;SDS011;72972;51.784;4.660;2024-01-25T12:39:56;10.85;;;3.13;;
83099;SDS011;72972;51.784;4.660;2024-01-25T12:42:22;11.55;;;3.42;;
83099;SDS011;72972;51.784;4.660;2024-01-25T12:44:52;11.25;;;3.08;;
83099;SDS011;72972;51.784;4.660;2024-01-25T12:47:27;13.10;;;3.67;;
83099;SDS011;72972;51.784;4.660;2024-01-25T12:49:53;11.70;;;3.65;;
83099;SDS011;72972;51.784;4.660;2024-01-25T12:52:21;8.95;;;3.28;;
83099;SDS011;72972;51.784;4.660;2024-01-25T12:54:50;16.42;;;4.10;;
83099;SDS011;72972;51.784;4.660;2024-01-25T12:57:20;15.82;;;4.40;;
83099;SDS011;72972;51.784;4.660;2024-01-25T12:59:46;8.80;;;3.28;;
83099;SDS011;72972;51.784;4.660;2024-01-25T13:02:12;12.93;;;3.83;;
83099;SDS011;72972;51.784;4.660;2024-01-25T13:04:38;14.63;;;3.78;;
83099;SDS011;72972;51.784;4.660;2024-01-25T13:07:03;13.23;;;4.10;;
83099;SDS011;72972;51.784;4.660;2024-01-25T13:09:29;10.60;;;3.50;;
83099;SDS011;72972;51.784;4.660;2024-01-25T13:11:58;10.90;;;4.18;;
83099;SDS011;72972;51.784;4.660;2024-01-25T13:14:24;9.43;;;3.70;;
83099;SDS011;72972;51.784;4.660;2024-01-25T13:16:53;8.48;;;3.53;;
83099;SDS011;72972;51.784;4.660;2024-01-25T13:19:19;14.00;;;4.03;;
83099;SDS011;72972;51.784;4.660;2024-01-25T13:21:45;10.32;;;3.45;;
83099;SDS011;72972;51.784;4.660;2024-01-25T13:24:10;10.52;;;4.07;;
83099;SDS011;72972;51.784;4.660;2024-01-25T13:26:36;14.45;;;4.20;;
83099;SDS011;72972;51.784;4.660;2024-01-25T13:29:02;12.63;;;3.88;;
83099;SDS011;72972;51.784;4.660;2024-01-25T13:31:27;15.73;;;4.50;;
83099;SDS011;72972;51.784;4.660;2024-01-25T13:33:53;7.93;;;3.90;;
83099;SDS011;72972;51.784;4.660;2024-01-25T13:36:19;12.00;;;4.57;;
83099;SDS011;72972;51.784;4.660;2024-01-25T13:38:45;10.52;;;5.07;;
83099;SDS011;72972;51.784;4.660;2024-01-25T13:41:11;12.98;;;4.43;;
83099;SDS011;72972;51.784;4.660;2024-01-25T13:43:36;11.10;;;4.60;;
83099;SDS011;72972;51.784;4.660;2024-01-25T13:46:02;12.63;;;4.32;;
83099;SDS011;72972;51.784;4.660;2024-01-25T13:48:27;13.82;;;5.32;;
83099;SDS011;72972;51.784;4.660;2024-01-25T13:50:53;9.10;;;4.60;;
83099;SDS011;72972;51.784;4.660;2024-01-25T13:53:19;10.95;;;5.10;;
83099;SDS011;72972;51.784;4.660;2024-01-25T13:55:45;12.52;;;4.72;;
83099;SDS011;72972;51.784;4.660;2024-01-25T13:58:10;10.52;;;4.88;;
83099;SDS011;72972;51.784;4.660;2024-01-25T14:00:36;11.80;;;5.03;;
83099;SDS011;72972;51.784;4.660;2024-01-25T14:03:02;11.55;;;5.18;;
83099;SDS011;72972;51.784;4.660;2024-01-25T14:05:28;11.00;;;5.78;;
83099;SDS011;72972;51.784;4.660;2024-01-25T14:07:53;12.73;;;6.03;;
83099;SDS011;72972;51.784;4.660;2024-01-25T14:10:19;13.55;;;6.30;;
83099;SDS011;72972;51.784;4.660;2024-01-25T14:12:45;13.60;;;5.43;;
83099;SDS011;72972;51.784;4.660;2024-01-25T14:15:11;12.68;;;5.57;;
83099;SDS011;72972;51.784;4.660;2024-01-25T14:17:37;17.13;;;6.88;;
83099;SDS011;72972;51.784;4.660;2024-01-25T14:20:03;12.82;;;6.22;;
83099;SDS011;72972;51.784;4.660;2024-01-25T14:22:38;14.10;;;6.38;;
83099;SDS011;72972;51.784;4.660;2024-01-25T14:25:04;13.27;;;5.78;;
83099;SDS011;72972;51.784;4.660;2024-01-25T14:27:32;17.75;;;6.88;;
83099;SDS011;72972;51.784;4.660;2024-01-25T14:29:58;17.65;;;7.72;;
83099;SDS011;72972;51.784;4.660;2024-01-25T14:32:28;12.00;;;6.10;;
83099;SDS011;72972;51.784;4.660;2024-01-25T14:34:53;14.60;;;6.57;;
83099;SDS011;72972;51.784;4.660;2024-01-25T14:37:19;14.82;;;7.05;;
83099;SDS011;72972;51.784;4.660;2024-01-25T14:39:48;12.30;;;5.72;;
83099;SDS011;72972;51.784;4.660;2024-01-25T14:42:14;16.83;;;7.05;;